Radfahren

Overview

126,13
km
Distance
5:54:14
Time
8:05:06
Elapsed time
21,4
 km/h
avg. Speed
-
bpm
avg. Heart rate
-
bpm
max. Heart rate
3957
kcal
Energy
-
VO2max
329
TRIMP
359
m
Elevation

Laps

DistanceTimePaceelev.
1,01 km3:2218,0 km/h+0/-9
2,00 km6:4517,6 km/h+0/-0
3,00 km10:1816,9 km/h+0/-2
4,00 km13:4117,7 km/h+0/-2
5,00 km17:1317,0 km/h+4/-5
6,03 km20:3118,7 km/h+2/-0
7,01 km23:3319,3 km/h+0/-2
8,01 km26:4718,6 km/h+1/-0
9,01 km29:5419,3 km/h+0/-7
10,02 km33:1817,8 km/h+0/-3
11,01 km36:2519,1 km/h+5/-0
12,01 km39:2620,0 km/h+6/-0
13,02 km42:2520,2 km/h+0/-12
14,01 km45:3418,9 km/h+13/-0
15,01 km48:0823,3 km/h+0/-11
16,01 km50:3923,9 km/h+0/-2
17,00 km53:1522,9 km/h+3/-5
18,04 km55:5024,1 km/h+0/-0
19,00 km58:5718,5 km/h+8/-0
20,02 km1:02:0020,0 km/h+11/-0
21,03 km1:05:0020,3 km/h+0/-7
22,04 km1:08:0619,6 km/h+0/-8
23,02 km1:10:4522,2 km/h+0/-9
24,03 km1:13:1923,7 km/h+1/-0
25,05 km1:15:4325,4 km/h+8/-0
26,03 km1:18:2022,6 km/h+0/-6
27,00 km1:21:4716,8 km/h+0/-9
28,01 km1:24:4520,4 km/h+5/-0
29,01 km1:27:3721,1 km/h+0/-9
30,03 km1:30:1223,6 km/h+6/-11
31,01 km1:33:0420,6 km/h+9/-0
32,00 km1:35:2924,6 km/h+0/-0
33,02 km1:38:1522,2 km/h+0/-5
34,04 km1:40:4225,0 km/h+2/-0
35,01 km1:42:5925,3 km/h+27/-0
36,02 km1:45:1826,4 km/h+0/-11
37,01 km1:47:4623,9 km/h+0/-7
38,00 km1:50:2722,2 km/h+0/-17
39,02 km1:53:4918,1 km/h+2/-0
40,02 km1:56:5719,3 km/h+0/-0
41,06 km1:59:1527,0 km/h+0/-6
42,01 km2:01:4023,6 km/h+9/-0
43,05 km2:04:1624,0 km/h+0/-6
44,02 km2:06:2826,5 km/h+10/-0
45,04 km2:09:0024,0 km/h+0/-14
46,00 km2:12:0418,9 km/h+0/-0
47,04 km2:14:3524,7 km/h+0/-1
48,07 km2:16:5526,4 km/h+3/-0
49,05 km2:19:1126,0 km/h+0/-0
50,01 km2:21:3424,2 km/h+0/-3
51,01 km2:24:2621,0 km/h+5/-0
52,01 km2:26:5524,0 km/h+0/-7
53,01 km2:30:1817,7 km/h+1/-0
54,02 km2:32:5423,4 km/h+5/-0
55,03 km2:35:4221,6 km/h+0/-1
56,03 km2:38:0225,7 km/h+0/-3
57,01 km2:40:3622,8 km/h+1/-6
58,00 km2:43:2121,7 km/h+0/-1
59,02 km2:46:0522,3 km/h+6/-0
60,02 km2:48:2525,8 km/h+3/-0
61,00 km2:51:4817,4 km/h+1/-12
62,00 km2:54:0626,1 km/h+0/-1
63,04 km2:56:3025,9 km/h+10/-0
64,02 km2:59:4418,3 km/h+0/-10
65,01 km3:02:3021,5 km/h+13/-0
66,01 km3:05:1022,6 km/h+0/-13
67,01 km3:08:2718,3 km/h+3/-0
68,01 km3:11:1321,7 km/h+10/-0
69,04 km3:13:4524,3 km/h+0/-5
70,02 km3:16:2322,3 km/h+0/-5
71,01 km3:18:5124,1 km/h+7/-7
72,02 km3:21:1225,8 km/h+0/-0
73,04 km3:24:2718,8 km/h+0/-0
74,01 km3:26:5124,4 km/h+0/-8
75,01 km3:30:1517,7 km/h+5/-0
76,01 km3:32:4923,4 km/h+1/-0
77,04 km3:35:3422,4 km/h+5/-0
78,02 km3:38:1122,4 km/h+0/-4
79,02 km3:40:4523,4 km/h+0/-1
80,01 km3:43:1124,4 km/h+0/-0
81,01 km3:45:4723,0 km/h+0/-0
82,05 km3:49:0918,6 km/h+1/-0
83,01 km3:51:3124,4 km/h+0/-0
84,06 km3:53:4528,2 km/h+15/-0
85,00 km3:56:0324,5 km/h+0/-15
86,01 km3:58:3923,2 km/h+9/-0
87,01 km4:01:0824,3 km/h+0/-8
88,00 km4:04:1019,6 km/h+0/-4
89,01 km4:07:2418,7 km/h+6/-1
90,01 km4:09:5723,5 km/h+0/-0
91,02 km4:12:3822,6 km/h+17/-0
92,02 km4:15:0524,6 km/h+7/-0
93,01 km4:17:4921,8 km/h+0/-17
94,00 km4:20:2123,5 km/h+0/-1
95,00 km4:23:0322,3 km/h+0/-0
96,00 km4:25:4322,5 km/h+1/-0
97,01 km4:28:5019,4 km/h+0/-5
98,00 km4:31:5219,6 km/h+14/-4
99,00 km4:34:2723,2 km/h+2/-0
100,02 km4:37:1521,8 km/h+0/-3
101,03 km4:40:5116,9 km/h+0/-2
102,02 km4:44:1217,7 km/h+1/-0
103,00 km4:46:3125,4 km/h+7/-0
104,01 km4:49:0523,4 km/h+7/-0
105,01 km4:52:0619,9 km/h+6/-0
106,02 km4:55:2018,8 km/h+18/-0
107,04 km4:58:1121,4 km/h+0/-4
108,02 km5:01:0120,8 km/h+0/-21
109,01 km5:03:3523,0 km/h+0/-0
110,03 km5:06:1722,7 km/h+0/-0
111,03 km5:09:2519,2 km/h+0/-4
112,00 km5:12:1221,0 km/h+5/-0
113,02 km5:15:3218,3 km/h+12/-0
114,02 km5:18:1821,7 km/h+7/-0
115,00 km5:20:5522,5 km/h+4/-14
116,02 km5:23:4521,5 km/h+0/-0
117,02 km5:26:5119,4 km/h+0/-7
118,00 km5:29:3721,3 km/h+2/-0
119,00 km5:32:4119,6 km/h+0/-0
120,01 km5:35:3920,3 km/h+0/-1
121,04 km5:38:2122,9 km/h+2/-0
122,00 km5:41:1520,0 km/h+0/-2
123,01 km5:44:0121,9 km/h+3/-0
124,01 km5:46:5121,0 km/h+3/-0
125,00 km5:50:2117,1 km/h+0/-0
126,01 km5:53:4517,7 km/h+5/-0
126,13 km5:54:1415,2 km/h+0/-0

Pace data

21,4
 km/h
avg. Speed
2:49
/km
avg. Pace

Course and elevation data

126,13
km
Distance
359
m
Elevation
0.28
%
avg. Gradient
+355/-359
m
Elevation up/down
0.0
Climb Score
3
%
Percentage hilly

Climb Score view

Elevation data were corrected.

Miscellaneous

12.08.2015
Date
09:02
Time of day
-
rpm
Cadence
-
Total cadence
63
W
Power
cloudy
Weather condition
23
°C
Temperature
T-Shirt, kurze Hose
Kleidung